createdAt,value
2023-03-11T00:00:03.665Z,984.99
2023-03-11T00:01:03.664Z,984.98
2023-03-11T00:02:03.706Z,985.07
2023-03-11T00:03:03.655Z,985.09
2023-03-11T00:04:03.658Z,985.16
2023-03-11T00:05:03.701Z,985.18
2023-03-11T00:06:03.650Z,985.21
2023-03-11T00:07:03.648Z,985.23
2023-03-11T00:08:03.646Z,985.27
2023-03-11T00:09:03.645Z,985.26
2023-03-11T00:10:03.644Z,985.33
2023-03-11T00:11:03.646Z,985.36
2023-03-11T00:12:03.638Z,985.40
2023-03-11T00:13:03.642Z,985.39
2023-03-11T00:14:03.628Z,985.42
2023-03-11T00:15:03.632Z,985.49
2023-03-11T00:16:03.625Z,985.49
2023-03-11T00:17:03.624Z,985.49
2023-03-11T00:18:03.620Z,985.51
2023-03-11T00:19:03.624Z,985.54
2023-03-11T00:20:03.614Z,985.57
2023-03-11T00:21:03.611Z,985.56
2023-03-11T00:22:03.608Z,985.58
2023-03-11T00:23:03.620Z,985.62
2023-03-11T00:24:03.639Z,985.65
2023-03-11T00:25:03.615Z,985.69
2023-03-11T00:26:03.599Z,985.68
2023-03-11T00:27:03.602Z,985.76
2023-03-11T00:28:03.598Z,985.77
2023-03-11T00:29:03.592Z,985.82
2023-03-11T00:30:03.596Z,985.81
2023-03-11T00:31:03.643Z,985.87
2023-03-11T00:32:03.580Z,985.84
2023-03-11T00:33:03.589Z,985.86
2023-03-11T00:34:03.577Z,985.87
2023-03-11T00:35:03.574Z,985.86
2023-03-11T00:36:03.600Z,985.95
2023-03-11T00:37:03.568Z,985.92
2023-03-11T00:38:03.566Z,986.02
2023-03-11T00:39:03.566Z,985.98
2023-03-11T00:40:03.558Z,986.03
2023-03-11T00:41:03.557Z,986.03
2023-03-11T00:42:03.554Z,986.03
2023-03-11T00:43:03.560Z,986.04
2023-03-11T00:44:03.548Z,986.12
2023-03-11T00:45:03.547Z,986.08
2023-03-11T00:46:03.570Z,986.17
2023-03-11T00:47:03.543Z,986.14
2023-03-11T00:48:03.540Z,986.14
2023-03-11T00:49:03.537Z,986.17
2023-03-11T00:50:03.538Z,986.18
2023-03-11T00:51:03.529Z,986.22
2023-03-11T00:52:03.538Z,986.20
2023-03-11T00:53:03.528Z,986.21
2023-03-11T00:54:03.514Z,986.26
2023-03-11T00:55:03.518Z,986.26
2023-03-11T00:56:03.513Z,986.29
2023-03-11T00:57:03.510Z,986.29
2023-03-11T00:58:03.519Z,986.30
2023-03-11T00:59:03.505Z,986.35
2023-03-11T01:00:03.508Z,986.37
2023-03-11T01:01:03.553Z,986.40
2023-03-11T01:02:03.497Z,986.47
2023-03-11T01:03:03.509Z,986.47
2023-03-11T01:04:03.497Z,986.53
2023-03-11T01:05:03.492Z,986.52
2023-03-11T01:06:03.484Z,986.57
2023-03-11T01:07:03.482Z,986.61
2023-03-11T01:08:03.480Z,986.57
2023-03-11T01:09:03.478Z,986.65
2023-03-11T01:10:03.473Z,986.69
2023-03-11T01:11:03.480Z,986.69
2023-03-11T01:12:03.475Z,986.73
2023-03-11T01:13:03.480Z,986.76
2023-03-11T01:14:03.467Z,986.79
2023-03-11T01:15:03.466Z,986.80
2023-03-11T01:16:03.638Z,986.82
2023-03-11T01:17:03.453Z,986.86
2023-03-11T01:18:03.451Z,986.86
2023-03-11T01:19:03.452Z,986.90
2023-03-11T01:20:03.446Z,986.94
2023-03-11T01:21:03.443Z,986.96
2023-03-11T01:22:03.451Z,987.02
2023-03-11T01:23:03.583Z,986.99
2023-03-11T01:24:03.441Z,987.07
2023-03-11T01:25:03.427Z,987.09
2023-03-11T01:26:03.425Z,987.15
2023-03-11T01:27:03.424Z,987.20
2023-03-11T01:28:03.425Z,987.24
2023-03-11T01:29:03.420Z,987.27
2023-03-11T01:30:03.422Z,987.32
2023-03-11T01:31:03.454Z,987.35
2023-03-11T01:32:03.410Z,987.37
2023-03-11T01:33:03.409Z,987.43
2023-03-11T01:34:03.403Z,987.47
2023-03-11T01:35:03.398Z,987.56
2023-03-11T01:36:03.418Z,987.49
2023-03-11T01:37:03.392Z,987.56
2023-03-11T01:38:03.418Z,987.59
2023-03-11T01:39:03.388Z,987.62
2023-03-11T01:40:03.385Z,987.72
2023-03-11T01:41:03.487Z,987.67
2023-03-11T01:42:03.397Z,987.71
2023-03-11T01:43:03.392Z,987.76
2023-03-11T01:44:03.374Z,987.77
2023-03-11T01:45:03.376Z,987.80
2023-03-11T01:46:03.417Z,987.85
2023-03-11T01:47:03.374Z,987.86
2023-03-11T01:48:03.357Z,987.84
2023-03-11T01:49:03.376Z,987.90
2023-03-11T01:50:03.352Z,988.01
2023-03-11T01:51:03.350Z,988.01
2023-03-11T01:52:03.349Z,988.01
2023-03-11T01:53:03.340Z,988.05
2023-03-11T01:54:03.341Z,988.01
2023-03-11T01:55:03.333Z,988.05
2023-03-11T01:56:03.334Z,988.07
2023-03-11T01:57:03.329Z,988.20
2023-03-11T01:58:03.345Z,988.17
2023-03-11T01:59:03.332Z,988.16
2023-03-11T02:00:03.326Z,988.27
2023-03-11T02:01:03.323Z,988.28
2023-03-11T02:02:03.383Z,988.30
2023-03-11T02:03:03.459Z,988.34
2023-03-11T02:04:03.313Z,988.37
2023-03-11T02:05:03.300Z,988.44
2023-03-11T02:06:03.313Z,988.40
2023-03-11T02:07:03.300Z,988.44
2023-03-11T02:08:03.293Z,988.50
2023-03-11T02:09:03.289Z,988.56
2023-03-11T02:10:03.293Z,988.56
2023-03-11T02:11:03.287Z,988.57
2023-03-11T02:12:03.286Z,988.63
2023-03-11T02:13:03.294Z,988.63
2023-03-11T02:14:03.285Z,988.64
2023-03-11T02:15:03.281Z,988.70
2023-03-11T02:16:03.331Z,988.69
2023-03-11T02:17:03.276Z,988.70
2023-03-11T02:18:03.270Z,988.80
2023-03-11T02:19:03.263Z,988.83
2023-03-11T02:20:03.274Z,988.87
2023-03-11T02:21:03.263Z,988.90
2023-03-11T02:22:03.257Z,988.94
2023-03-11T02:23:03.261Z,988.95
2023-03-11T02:24:03.252Z,989.07
2023-03-11T02:25:03.259Z,989.07
2023-03-11T02:26:03.248Z,989.13
2023-03-11T02:27:03.244Z,989.22
2023-03-11T02:28:03.244Z,989.19
2023-03-11T02:29:03.236Z,989.28
2023-03-11T02:30:03.234Z,989.32
2023-03-11T02:31:03.260Z,989.34
2023-03-11T02:32:03.232Z,989.44
2023-03-11T02:33:03.226Z,989.44
2023-03-11T02:34:03.222Z,989.53
2023-03-11T02:35:03.218Z,989.52
2023-03-11T02:36:03.254Z,989.58
2023-03-11T02:37:03.211Z,989.64
2023-03-11T02:38:03.212Z,989.65
2023-03-11T02:39:03.205Z,989.66
2023-03-11T02:40:03.203Z,989.66
2023-03-11T02:41:03.218Z,989.69
2023-03-11T02:42:03.195Z,989.75
2023-03-11T02:43:03.195Z,989.86
2023-03-11T02:44:03.194Z,989.78
2023-03-11T02:45:03.189Z,989.85
2023-03-11T02:46:03.182Z,989.89
2023-03-11T02:47:03.213Z,989.92
2023-03-11T02:48:03.184Z,989.90
2023-03-11T02:49:03.168Z,990.00
2023-03-11T02:50:03.168Z,990.02
2023-03-11T02:51:03.170Z,990.08
2023-03-11T02:52:03.167Z,990.03
2023-03-11T02:53:03.158Z,990.11
2023-03-11T02:54:03.151Z,990.15
2023-03-11T02:55:03.151Z,990.17
2023-03-11T02:56:03.142Z,990.20
2023-03-11T02:57:03.138Z,990.26
2023-03-11T02:58:03.136Z,990.28
2023-03-11T02:59:03.137Z,990.31
2023-03-11T03:00:03.130Z,990.36
2023-03-11T03:01:03.204Z,990.39
2023-03-11T03:02:03.121Z,990.38
2023-03-11T03:03:03.120Z,990.41
2023-03-11T03:04:03.146Z,990.48
2023-03-11T03:05:03.113Z,990.60
2023-03-11T03:06:03.109Z,990.55
2023-03-11T03:07:03.107Z,990.61
2023-03-11T03:08:03.104Z,990.67
2023-03-11T03:09:03.098Z,990.64
2023-03-11T03:10:03.127Z,990.69
2023-03-11T03:11:03.094Z,990.74
2023-03-11T03:12:03.094Z,990.80
2023-03-11T03:13:03.093Z,990.86
2023-03-11T03:14:03.085Z,990.90
2023-03-11T03:15:03.075Z,990.96
2023-03-11T03:16:03.178Z,990.93
2023-03-11T03:17:03.210Z,990.95
2023-03-11T03:18:03.065Z,991.04
2023-03-11T03:19:03.063Z,991.06
2023-03-11T03:20:03.059Z,991.09
2023-03-11T03:21:03.058Z,991.18
2023-03-11T03:22:03.062Z,991.20
2023-03-11T03:23:03.055Z,991.23
2023-03-11T03:24:03.048Z,991.25
2023-03-11T03:25:03.115Z,991.29
2023-03-11T03:26:03.049Z,991.31
2023-03-11T03:27:03.047Z,991.30
2023-03-11T03:28:03.034Z,991.49
2023-03-11T03:29:03.033Z,991.43
2023-03-11T03:30:03.029Z,991.49
2023-03-11T03:31:03.039Z,991.53
2023-03-11T03:32:03.066Z,991.53
2023-03-11T03:33:03.016Z,991.60
2023-03-11T03:34:03.011Z,991.66
2023-03-11T03:35:03.011Z,991.66
2023-03-11T03:36:03.066Z,991.71
2023-03-11T03:37:03.003Z,991.72
2023-03-11T03:38:03.007Z,991.78
2023-03-11T03:39:02.998Z,991.81
2023-03-11T03:40:03.002Z,991.83
2023-03-11T03:41:02.989Z,991.86
2023-03-11T03:42:02.988Z,991.89
2023-03-11T03:43:02.983Z,991.93
2023-03-11T03:44:02.978Z,991.97
2023-03-11T03:45:03.000Z,992.02
2023-03-11T03:46:03.072Z,992.05
2023-03-11T03:47:02.977Z,992.09
2023-03-11T03:48:02.966Z,992.15
2023-03-11T03:49:02.972Z,992.15
2023-03-11T03:50:02.965Z,992.21
2023-03-11T03:51:02.955Z,992.22
2023-03-11T03:52:02.984Z,992.32
2023-03-11T03:53:02.946Z,992.31
2023-03-11T03:54:02.941Z,992.38
2023-03-11T03:55:02.941Z,992.41
2023-03-11T03:56:02.940Z,992.44
2023-03-11T03:57:02.934Z,992.48
2023-03-11T03:58:02.928Z,992.49
2023-03-11T03:59:02.936Z,992.52
2023-03-11T04:00:02.944Z,992.53
2023-03-11T04:01:02.922Z,992.60
2023-03-11T04:02:02.967Z,992.58
2023-03-11T04:03:03.023Z,992.63
2023-03-11T04:04:02.913Z,992.64
2023-03-11T04:05:02.908Z,992.68
2023-03-11T04:06:02.903Z,992.71
2023-03-11T04:07:02.903Z,992.72
2023-03-11T04:08:02.899Z,992.73
2023-03-11T04:09:02.908Z,992.75
2023-03-11T04:10:02.889Z,992.81
2023-03-11T04:11:02.886Z,992.85
2023-03-11T04:12:02.881Z,992.88
2023-03-11T04:13:02.892Z,992.87
2023-03-11T04:14:02.876Z,992.96
2023-03-11T04:15:02.872Z,992.95
2023-03-11T04:16:02.871Z,992.96
2023-03-11T04:17:02.880Z,993.00
2023-03-11T04:18:02.864Z,993.05
2023-03-11T04:19:02.862Z,993.11
2023-03-11T04:20:02.856Z,993.10
2023-03-11T04:21:02.852Z,993.13
2023-03-11T04:22:02.849Z,993.16
2023-03-11T04:23:02.854Z,993.17
2023-03-11T04:24:02.840Z,993.19
2023-03-11T04:25:02.847Z,993.18
2023-03-11T04:26:02.834Z,993.23
2023-03-11T04:27:02.840Z,993.21
2023-03-11T04:28:02.826Z,993.26
2023-03-11T04:29:02.824Z,993.26
2023-03-11T04:30:02.818Z,993.29
2023-03-11T04:31:02.899Z,993.32
2023-03-11T04:32:02.812Z,993.36
2023-03-11T04:33:02.858Z,993.35
2023-03-11T04:34:02.801Z,993.39
2023-03-11T04:35:02.797Z,993.44
2023-03-11T04:36:02.818Z,993.44
2023-03-11T04:37:02.797Z,993.51
2023-03-11T04:38:02.783Z,993.54
2023-03-11T04:39:02.779Z,993.54
2023-03-11T04:40:02.776Z,993.55
2023-03-11T04:41:02.770Z,993.56
2023-03-11T04:42:04.052Z,993.64
2023-03-11T04:43:02.765Z,993.68
2023-03-11T04:44:02.768Z,993.74
2023-03-11T04:45:02.772Z,993.74
2023-03-11T04:46:02.795Z,993.79
2023-03-11T04:47:02.763Z,993.81
2023-03-11T04:48:02.752Z,993.79
2023-03-11T04:49:02.749Z,993.82
2023-03-11T04:50:02.738Z,993.87
2023-03-11T04:51:02.734Z,993.88
2023-03-11T04:52:02.730Z,993.94
2023-03-11T04:53:02.731Z,993.94
2023-03-11T04:54:02.722Z,993.93
2023-03-11T04:55:02.723Z,993.97
2023-03-11T04:56:02.716Z,994.07
2023-03-11T04:57:02.710Z,994.01
2023-03-11T04:58:02.718Z,994.06
2023-03-11T04:59:02.709Z,994.14
2023-03-11T05:00:02.709Z,994.19
2023-03-11T05:01:02.697Z,994.17
2023-03-11T05:02:02.689Z,994.24
2023-03-11T05:03:02.757Z,994.30
2023-03-11T05:04:02.692Z,994.25
2023-03-11T05:05:02.689Z,994.31
2023-03-11T05:06:02.689Z,994.37
2023-03-11T05:07:02.672Z,994.37
2023-03-11T05:08:02.670Z,994.36
2023-03-11T05:09:02.666Z,994.40
2023-03-11T05:10:02.672Z,994.43
2023-03-11T05:11:02.658Z,994.44
2023-03-11T05:12:02.659Z,994.53
2023-03-11T05:13:02.657Z,994.54
2023-03-11T05:14:02.648Z,994.59
2023-03-11T05:15:02.645Z,994.66
2023-03-11T05:16:02.696Z,994.68
2023-03-11T05:17:02.636Z,994.67
2023-03-11T05:18:02.634Z,994.72
2023-03-11T05:19:02.634Z,994.76
2023-03-11T05:20:02.625Z,994.75
2023-03-11T05:21:02.621Z,994.79
2023-03-11T05:22:02.623Z,994.85
2023-03-11T05:23:02.614Z,994.81
2023-03-11T05:24:02.622Z,994.87
2023-03-11T05:25:02.604Z,994.89
2023-03-11T05:26:02.646Z,994.89
2023-03-11T05:27:02.600Z,994.93
2023-03-11T05:28:02.597Z,994.95
2023-03-11T05:29:02.590Z,994.97
2023-03-11T05:30:02.603Z,995.03
2023-03-11T05:31:02.688Z,994.92
2023-03-11T05:32:02.579Z,995.03
2023-03-11T05:33:02.574Z,995.06
2023-03-11T05:34:02.571Z,995.05
2023-03-11T05:35:02.574Z,995.06
2023-03-11T05:36:02.650Z,995.09
2023-03-11T05:37:03.303Z,995.15
2023-03-11T05:38:02.562Z,995.20
2023-03-11T05:39:02.555Z,995.21
2023-03-11T05:40:02.551Z,995.21
2023-03-11T05:41:02.550Z,995.28
2023-03-11T05:42:02.547Z,995.32
2023-03-11T05:43:02.543Z,995.35
2023-03-11T05:44:02.539Z,995.36
2023-03-11T05:45:02.598Z,995.39
2023-03-11T05:46:02.655Z,995.42
2023-03-11T05:47:02.629Z,995.39
2023-03-11T05:48:02.589Z,995.47
2023-03-11T05:49:02.521Z,995.46
2023-03-11T05:50:02.517Z,995.51
2023-03-11T05:51:02.517Z,995.56
2023-03-11T05:52:02.518Z,995.54
2023-03-11T05:53:02.509Z,995.59
2023-03-11T05:54:02.502Z,995.64
2023-03-11T05:55:02.498Z,995.64
2023-03-11T05:56:02.616Z,995.67
2023-03-11T05:57:02.495Z,995.70
2023-03-11T05:58:02.573Z,995.66
2023-03-11T05:59:02.479Z,995.63
2023-03-11T06:00:02.477Z,995.68
2023-03-11T06:01:02.470Z,995.68
2023-03-11T06:02:02.513Z,995.73
2023-03-11T06:03:02.465Z,995.71
2023-03-11T06:04:02.539Z,995.75
2023-03-11T06:05:02.585Z,995.73
2023-03-11T06:06:02.541Z,995.77
2023-03-11T06:07:02.449Z,995.76
2023-03-11T06:08:02.445Z,995.82
2023-03-11T06:09:02.437Z,995.82
2023-03-11T06:10:02.434Z,995.92
2023-03-11T06:11:02.438Z,995.91
2023-03-11T06:12:02.427Z,995.90
2023-03-11T06:13:02.425Z,995.92
2023-03-11T06:14:02.423Z,995.92
2023-03-11T06:15:02.417Z,995.95
2023-03-11T06:16:02.458Z,996.01
2023-03-11T06:17:02.400Z,996.04
2023-03-11T06:18:02.412Z,996.05
2023-03-11T06:19:02.400Z,996.05
2023-03-11T06:20:02.396Z,996.06
2023-03-11T06:21:02.390Z,996.05
2023-03-11T06:22:02.388Z,996.12
2023-03-11T06:23:02.384Z,996.13
2023-03-11T06:24:02.380Z,996.10
2023-03-11T06:25:02.429Z,996.17
2023-03-11T06:26:02.371Z,996.24
2023-03-11T06:27:02.370Z,996.25
2023-03-11T06:28:02.373Z,996.21
2023-03-11T06:29:02.377Z,996.23
2023-03-11T06:30:02.357Z,996.33
2023-03-11T06:31:02.356Z,996.29
2023-03-11T06:32:02.351Z,996.32
2023-03-11T06:33:02.348Z,996.36
2023-03-11T06:34:02.343Z,996.41
2023-03-11T06:35:02.348Z,996.42
2023-03-11T06:36:02.524Z,996.45
2023-03-11T06:37:02.333Z,996.50
2023-03-11T06:38:02.330Z,996.52
2023-03-11T06:39:02.323Z,996.59
2023-03-11T06:40:02.323Z,996.59
2023-03-11T06:41:02.321Z,996.60
2023-03-11T06:42:02.328Z,996.57
2023-03-11T06:43:02.314Z,996.62
2023-03-11T06:44:02.318Z,996.59
2023-03-11T06:45:02.305Z,996.61
2023-03-11T06:46:02.341Z,996.68
2023-03-11T06:47:02.315Z,996.70
2023-03-11T06:48:02.291Z,996.76
2023-03-11T06:49:02.291Z,996.79
2023-03-11T06:50:02.305Z,996.83
2023-03-11T06:51:02.288Z,996.90
2023-03-11T06:52:02.278Z,996.92
2023-03-11T06:53:02.274Z,996.95
2023-03-11T06:54:02.269Z,997.02
2023-03-11T06:55:02.269Z,997.03
2023-03-11T06:56:02.268Z,997.11
2023-03-11T06:57:02.259Z,997.13
2023-03-11T06:58:02.256Z,997.12
2023-03-11T06:59:02.266Z,997.17
2023-03-11T07:00:02.271Z,997.19
2023-03-11T07:01:02.262Z,997.26
2023-03-11T07:02:02.243Z,997.31
2023-03-11T07:03:02.241Z,997.31
2023-03-11T07:04:02.273Z,997.31
2023-03-11T07:05:02.235Z,997.30
2023-03-11T07:06:02.230Z,997.32
2023-03-11T07:07:02.221Z,997.31
2023-03-11T07:08:02.221Z,997.35
2023-03-11T07:09:02.230Z,997.31
2023-03-11T07:10:02.213Z,997.37
2023-03-11T07:11:02.211Z,997.34
2023-03-11T07:12:02.206Z,997.43
2023-03-11T07:13:02.206Z,997.42
2023-03-11T07:14:02.201Z,997.43
2023-03-11T07:15:02.201Z,997.52
2023-03-11T07:16:02.199Z,997.51
2023-03-11T07:17:02.356Z,997.52
2023-03-11T07:18:02.186Z,997.51
2023-03-11T07:19:02.183Z,997.55
2023-03-11T07:20:02.183Z,997.58
2023-03-11T07:21:02.176Z,997.62
2023-03-11T07:22:02.180Z,997.61
2023-03-11T07:23:02.188Z,997.64
2023-03-11T07:24:02.170Z,997.68
2023-03-11T07:25:02.164Z,997.71
2023-03-11T07:26:02.165Z,997.77
2023-03-11T07:27:02.161Z,997.79
2023-03-11T07:28:02.152Z,997.79
2023-03-11T07:29:02.152Z,997.83
2023-03-11T07:30:02.147Z,997.93
2023-03-11T07:31:02.143Z,997.97
2023-03-11T07:32:02.183Z,997.96
2023-03-11T07:33:02.148Z,997.98
2023-03-11T07:34:02.136Z,998.01
2023-03-11T07:35:02.130Z,998.07
2023-03-11T07:36:02.153Z,998.07
2023-03-11T07:37:02.136Z,998.12
2023-03-11T07:38:02.129Z,998.09
2023-03-11T07:39:04.149Z,998.12
2023-03-11T07:40:02.111Z,998.15
2023-03-11T07:41:02.111Z,998.22
2023-03-11T07:42:02.114Z,998.20
2023-03-11T07:43:02.103Z,998.22
2023-03-11T07:44:02.108Z,998.29
2023-03-11T07:45:02.096Z,998.29
2023-03-11T07:46:02.181Z,998.26
2023-03-11T07:47:02.112Z,998.37
2023-03-11T07:48:02.087Z,998.32
2023-03-11T07:49:02.090Z,998.35
2023-03-11T07:50:02.115Z,998.35
2023-03-11T07:51:02.084Z,998.44
2023-03-11T07:52:02.093Z,998.41
2023-03-11T07:53:02.082Z,998.41
2023-03-11T07:54:02.065Z,998.46
2023-03-11T07:55:02.083Z,998.48
2023-03-11T07:56:02.071Z,998.51
2023-03-11T07:57:02.057Z,998.55
2023-03-11T07:58:02.057Z,998.57
2023-03-11T07:59:02.052Z,998.61
2023-03-11T08:00:02.046Z,998.63
2023-03-11T08:01:02.048Z,998.68
2023-03-11T08:02:02.060Z,998.66
2023-03-11T08:03:02.035Z,998.68
2023-03-11T08:04:02.066Z,998.74
2023-03-11T08:05:02.031Z,998.70
2023-03-11T08:06:02.039Z,998.72
2023-03-11T08:07:02.025Z,998.76
2023-03-11T08:08:02.024Z,998.81
2023-03-11T08:09:02.020Z,998.84
2023-03-11T08:10:02.015Z,998.82
2023-03-11T08:11:02.016Z,998.85
2023-03-11T08:12:02.010Z,998.82
2023-03-11T08:13:02.020Z,998.87
2023-03-11T08:14:02.009Z,998.89
2023-03-11T08:15:02.003Z,998.97
2023-03-11T08:16:02.036Z,998.94
2023-03-11T08:17:01.998Z,999.00
2023-03-11T08:18:01.994Z,998.97
2023-03-11T08:19:02.015Z,998.98
2023-03-11T08:20:02.009Z,999.05
2023-03-11T08:21:01.984Z,999.04
2023-03-11T08:22:01.980Z,999.05
2023-03-11T08:23:01.990Z,999.08
2023-03-11T08:24:02.066Z,999.13
2023-03-11T08:25:01.972Z,999.16
2023-03-11T08:26:01.968Z,999.19
2023-03-11T08:27:01.966Z,999.17
2023-03-11T08:28:01.965Z,999.20
2023-03-11T08:29:01.965Z,999.24
2023-03-11T08:30:01.982Z,999.25
2023-03-11T08:31:02.025Z,999.28
2023-03-11T08:32:01.953Z,999.35
2023-03-11T08:33:01.948Z,999.36
2023-03-11T08:34:01.945Z,999.39
2023-03-11T08:35:01.980Z,999.44
2023-03-11T08:36:01.985Z,999.45
2023-03-11T08:37:01.946Z,999.49
2023-03-11T08:38:01.934Z,999.54
2023-03-11T08:39:02.125Z,999.56
2023-03-11T08:40:01.949Z,999.61
2023-03-11T08:41:01.924Z,999.54
2023-03-11T08:42:01.922Z,999.60
2023-03-11T08:43:01.922Z,999.58
2023-03-11T08:44:01.922Z,999.66
2023-03-11T08:45:01.939Z,999.65
2023-03-11T08:46:01.993Z,999.62
2023-03-11T08:47:01.905Z,999.69
2023-03-11T08:48:01.905Z,999.73
2023-03-11T08:49:01.901Z,999.76
2023-03-11T08:50:01.898Z,999.80
2023-03-11T08:51:01.897Z,999.75
2023-03-11T08:52:01.899Z,999.82
2023-03-11T08:53:01.892Z,999.86
2023-03-11T08:54:01.893Z,999.83
2023-03-11T08:55:01.885Z,999.85
2023-03-11T08:56:01.879Z,999.91
2023-03-11T08:57:01.875Z,999.99
2023-03-11T08:58:01.884Z,999.97
2023-03-11T08:59:01.875Z,999.94
2023-03-11T09:00:01.876Z,999.91
2023-03-11T09:01:01.867Z,999.94
2023-03-11T09:02:01.866Z,999.99
2023-03-11T09:03:01.888Z,999.97
2023-03-11T09:04:01.875Z,1000.05
2023-03-11T09:05:01.855Z,1000.03
2023-03-11T09:06:01.972Z,1000.05
2023-03-11T09:07:01.850Z,1000.07
2023-03-11T09:08:02.899Z,1000.12
2023-03-11T09:09:01.852Z,1000.05
2023-03-11T09:10:01.842Z,1000.12
2023-03-11T09:11:01.841Z,1000.17
2023-03-11T09:12:01.836Z,1000.16
2023-03-11T09:13:01.866Z,1000.11
2023-03-11T09:14:01.829Z,1000.20
2023-03-11T09:15:01.828Z,1000.12
2023-03-11T09:16:01.850Z,1000.19
2023-03-11T09:17:01.825Z,1000.23
2023-03-11T09:18:01.818Z,1000.25
2023-03-11T09:19:01.814Z,1000.27
2023-03-11T09:20:01.821Z,1000.27
2023-03-11T09:21:01.835Z,1000.30
2023-03-11T09:22:01.809Z,1000.33
2023-03-11T09:23:01.806Z,1000.37
2023-03-11T09:24:01.802Z,1000.32
2023-03-11T09:25:01.802Z,1000.36
2023-03-11T09:26:01.832Z,1000.28
2023-03-11T09:27:01.796Z,1000.39
2023-03-11T09:28:01.795Z,1000.38
2023-03-11T09:29:01.790Z,1000.42
2023-03-11T09:30:01.787Z,1000.40
2023-03-11T09:31:01.857Z,1000.43
2023-03-11T09:32:01.786Z,1000.46
2023-03-11T09:33:01.781Z,1000.41
2023-03-11T09:34:01.781Z,1000.46
2023-03-11T09:35:01.780Z,1000.49
2023-03-11T09:36:01.815Z,1000.53
2023-03-11T09:37:01.777Z,1000.56
2023-03-11T09:38:01.781Z,1000.56
2023-03-11T09:39:01.766Z,1000.61
2023-03-11T09:40:01.764Z,1000.63
2023-03-11T09:41:01.761Z,1000.61
2023-03-11T09:42:01.757Z,1000.64
2023-03-11T09:43:01.758Z,1000.62
2023-03-11T09:44:01.764Z,1000.67
2023-03-11T09:45:01.765Z,1000.65
2023-03-11T09:46:01.751Z,1000.70
2023-03-11T09:47:01.793Z,1000.64
2023-03-11T09:48:01.747Z,1000.67
2023-03-11T09:49:01.739Z,1000.66
2023-03-11T09:50:01.741Z,1000.73
2023-03-11T09:51:01.734Z,1000.72
2023-03-11T09:52:01.740Z,1000.73
2023-03-11T09:53:01.735Z,1000.79
2023-03-11T09:54:01.731Z,1000.80
2023-03-11T09:55:01.725Z,1000.80
2023-03-11T09:56:01.720Z,1000.84
2023-03-11T09:57:01.718Z,1000.86
2023-03-11T09:58:01.714Z,1000.90
2023-03-11T09:59:01.711Z,1001.01
2023-03-11T10:00:01.711Z,1000.96
2023-03-11T10:01:01.714Z,1000.91
2023-03-11T10:02:01.715Z,1000.94
2023-03-11T10:03:01.707Z,1001.00
2023-03-11T10:04:01.714Z,1000.97
2023-03-11T10:05:01.699Z,1000.96
2023-03-11T10:06:01.746Z,1000.99
2023-03-11T10:07:01.691Z,1001.01
2023-03-11T10:08:01.689Z,1001.00
2023-03-11T10:09:01.685Z,1001.02
2023-03-11T10:10:01.691Z,1000.99
2023-03-11T10:11:01.680Z,1001.01
2023-03-11T10:12:01.677Z,1001.05
2023-03-11T10:13:01.680Z,1001.00
2023-03-11T10:14:01.673Z,1001.05
2023-03-11T10:15:01.670Z,1001.10
2023-03-11T10:16:01.691Z,1001.10
2023-03-11T10:17:01.662Z,1001.13
2023-03-11T10:18:01.715Z,1001.15
2023-03-11T10:19:01.659Z,1001.17
2023-03-11T10:20:01.659Z,1001.17
2023-03-11T10:21:01.673Z,1001.18
2023-03-11T10:22:01.656Z,1001.17
2023-03-11T10:23:01.648Z,1001.18
2023-03-11T10:24:01.648Z,1001.16
2023-03-11T10:25:01.662Z,1001.18
2023-03-11T10:26:01.648Z,1001.25
2023-03-11T10:27:01.691Z,1001.27
2023-03-11T10:28:01.644Z,1001.28
2023-03-11T10:29:01.632Z,1001.27
2023-03-11T10:30:01.647Z,1001.29
2023-03-11T10:31:01.625Z,1001.37
2023-03-11T10:32:01.686Z,1001.41
2023-03-11T10:33:01.624Z,1001.36
2023-03-11T10:34:01.639Z,1001.41
2023-03-11T10:35:01.651Z,1001.42
2023-03-11T10:36:01.667Z,1001.46
2023-03-11T10:37:01.614Z,1001.43
2023-03-11T10:38:01.611Z,1001.43
2023-03-11T10:39:01.610Z,1001.52
2023-03-11T10:40:01.606Z,1001.52
2023-03-11T10:41:01.620Z,1001.47
2023-03-11T10:42:01.605Z,1001.51
2023-03-11T10:43:01.597Z,1001.59
2023-03-11T10:44:01.599Z,1001.62
2023-03-11T10:45:01.598Z,1001.61
2023-03-11T10:46:01.655Z,1001.64
2023-03-11T10:47:01.588Z,1001.58
2023-03-11T10:48:01.585Z,1001.61
2023-03-11T10:49:01.589Z,1001.63
2023-03-11T10:50:01.580Z,1001.63
2023-03-11T10:51:01.656Z,1001.59
2023-03-11T10:52:01.575Z,1001.69
2023-03-11T10:53:01.575Z,1001.65
2023-03-11T10:54:01.568Z,1001.69
2023-03-11T10:55:01.567Z,1001.67
2023-03-11T10:56:01.564Z,1001.68
2023-03-11T10:57:01.564Z,1001.72
2023-03-11T10:58:01.560Z,1001.75
2023-03-11T10:59:01.564Z,1001.70
2023-03-11T11:00:01.554Z,1001.72
2023-03-11T11:01:01.616Z,1001.70
2023-03-11T11:02:01.563Z,1001.72
2023-03-11T11:03:01.553Z,1001.71
2023-03-11T11:04:01.612Z,1001.67
2023-03-11T11:05:01.551Z,1001.70
2023-03-11T11:06:01.547Z,1001.79
2023-03-11T11:07:01.551Z,1001.76
2023-03-11T11:08:01.537Z,1001.77
2023-03-11T11:09:01.534Z,1001.78
2023-03-11T11:10:01.532Z,1001.81
2023-03-11T11:11:01.541Z,1001.79
2023-03-11T11:12:01.528Z,1001.83
2023-03-11T11:13:01.525Z,1001.83
2023-03-11T11:14:01.530Z,1001.86
2023-03-11T11:15:01.523Z,1001.87
2023-03-11T11:16:01.539Z,1001.81
2023-03-11T11:17:01.579Z,1001.86
2023-03-11T11:18:01.513Z,1001.86
2023-03-11T11:19:01.518Z,1001.86
2023-03-11T11:20:01.515Z,1001.89
2023-03-11T11:21:01.515Z,1001.89
2023-03-11T11:22:01.506Z,1001.86
2023-03-11T11:23:01.516Z,1001.89
2023-03-11T11:24:01.500Z,1001.89
2023-03-11T11:25:01.531Z,1001.91
2023-03-11T11:26:01.510Z,1001.94
2023-03-11T11:27:01.491Z,1001.93
2023-03-11T11:28:01.497Z,1001.93
2023-03-11T11:29:01.485Z,1001.91
2023-03-11T11:30:01.487Z,1001.94
2023-03-11T11:31:01.527Z,1001.94
2023-03-11T11:32:01.478Z,1001.95
2023-03-11T11:33:01.497Z,1001.94
2023-03-11T11:34:01.473Z,1001.92
2023-03-11T11:35:01.505Z,1001.91
2023-03-11T11:36:08.629Z,1001.88
2023-03-11T11:38:05.474Z,1001.95
2023-03-11T11:39:05.478Z,1002.01
2023-03-11T11:41:09.467Z,1001.98
2023-03-11T11:42:09.458Z,1001.97
2023-03-11T11:44:13.456Z,1002.03
2023-03-11T11:45:13.664Z,1002.05
2023-03-11T11:47:06.531Z,1002.01
2023-03-11T11:48:06.367Z,1001.99
2023-03-11T11:50:10.365Z,1002.01
2023-03-11T11:51:10.357Z,1002.04
2023-03-11T11:53:03.470Z,1001.99
2023-03-11T11:54:03.453Z,1001.96
2023-03-11T11:56:07.433Z,1002.01
2023-03-11T11:57:07.429Z,1002.02
2023-03-11T11:59:11.433Z,1002.06
2023-03-11T12:00:11.416Z,1002.05
2023-03-11T12:02:04.833Z,1002.04
2023-03-11T12:03:04.822Z,1002.10
2023-03-11T12:05:08.828Z,1002.11
2023-03-11T12:06:08.797Z,1002.17
2023-03-11T12:08:12.805Z,1002.16
2023-03-11T12:09:12.796Z,1002.18
2023-03-11T12:11:16.792Z,1002.17
2023-03-11T12:12:16.786Z,1002.15
2023-03-11T12:14:20.792Z,1002.18
2023-03-11T12:15:20.783Z,1002.21
2023-03-11T12:17:13.713Z,1002.13
2023-03-11T12:18:13.709Z,1002.20
2023-03-11T12:20:17.704Z,1002.15
2023-03-11T12:21:17.699Z,1002.21
2023-03-11T12:23:21.716Z,1002.23
2023-03-11T12:24:21.697Z,1002.26
2023-03-11T12:26:14.796Z,1002.26
2023-03-11T12:27:14.796Z,1002.25
2023-03-11T12:29:18.796Z,1002.27
2023-03-11T12:30:18.783Z,1002.31
2023-03-11T12:32:22.848Z,1002.32
2023-03-11T12:33:22.781Z,1002.31
2023-03-11T12:35:26.786Z,1002.37
2023-03-11T12:36:26.778Z,1002.35
2023-03-11T12:38:30.784Z,1002.41
2023-03-11T12:39:30.768Z,1002.49
2023-03-11T12:41:23.877Z,1002.43
2023-03-11T12:42:23.867Z,1002.48
2023-03-11T12:44:27.877Z,1002.45
2023-03-11T12:45:27.863Z,1002.49